Big Lake, Indiana
Current Conditions -  °F | °C
As of 1:54 PM on Sunday 21 Dec 2014 (Local Time) from KFWA Reporting Station
Haze Haze  
Wind Chill: 28°   Ceiling: Unl
Heat Index: 35°   Visibility: 5mi
Dew Point: 25°   Wind: 9mph
Humidity: 67%   Direction: 150°SSE
Pressure: 30.22"   Gusts: NA
Location:  41.1479°N, 85.4772°W
Report Text: KFWA 211854Z 15008KT 5SM HZ SCT055 02/M04 A3022 RMK AO2 SLP241 T00171039
Loading
Personal Weather Stations






























Interactive Weather Map New forecast layout! Learn more

10-Day Weather Forecast

Advertisements
Track Severe Weather on mobile